Terminal Aerodrome Forecast
Issued by NWS

Home | Current Version | Previous Version | Text Only | Print | Product List | Glossary On
Versions: 1 2 3 4 5 6 7 8 9 10 11 12 13
338
FTUS45 KTFX 100531
TAFHVR
TAF
KHVR 100531Z 1006/1106 23008KT P6SM BKN200
     FM102200 09008KT P6SM SCT150 BKN200=

USA.gov is the U.S. government's official web portal to all federal, state and local government web resources and services.